createdAt,value
2023-04-09T00:02:27.713Z,33.05
2023-04-09T00:04:55.627Z,32.22
2023-04-09T00:07:23.572Z,35.63
2023-04-09T00:09:51.760Z,35.00
2023-04-09T00:12:19.744Z,35.60
2023-04-09T00:14:47.762Z,37.65
2023-04-09T00:17:15.787Z,36.70
2023-04-09T00:19:45.069Z,34.65
2023-04-09T00:22:12.974Z,34.65
2023-04-09T00:24:41.020Z,35.85
2023-04-09T00:27:08.992Z,36.80
2023-04-09T00:29:36.981Z,33.22
2023-04-09T00:32:05.002Z,38.88
2023-04-09T00:34:32.994Z,34.58
2023-04-09T00:37:02.395Z,35.08
2023-04-09T00:39:30.385Z,33.00
2023-04-09T00:41:59.520Z,33.05
2023-04-09T00:44:27.450Z,31.15
2023-04-09T00:46:56.160Z,31.50
2023-04-09T00:49:24.874Z,30.83
2023-04-09T00:51:53.332Z,29.15
2023-04-09T00:54:22.804Z,31.02
2023-04-09T00:56:50.942Z,30.23
2023-04-09T00:59:19.222Z,28.52
2023-04-09T01:01:47.254Z,29.33
2023-04-09T01:04:15.275Z,30.50
2023-04-09T01:06:49.529Z,29.40
2023-04-09T01:09:28.486Z,28.67
2023-04-09T01:12:04.363Z,26.67
2023-04-09T01:14:39.891Z,27.27
2023-04-09T01:17:13.519Z,27.75
2023-04-09T01:19:49.775Z,28.00
2023-04-09T01:22:32.209Z,25.83
2023-04-09T01:25:18.305Z,26.00
2023-04-09T01:27:59.212Z,29.80
2023-04-09T01:30:30.362Z,27.17
2023-04-09T01:32:59.135Z,27.30
2023-04-09T01:35:27.891Z,27.17
2023-04-09T01:37:57.148Z,28.85
2023-04-09T01:40:26.019Z,28.60
2023-04-09T01:42:55.601Z,31.17
2023-04-09T01:45:24.131Z,29.77
2023-04-09T01:47:55.228Z,30.42
2023-04-09T01:50:23.523Z,31.27
2023-04-09T01:52:51.860Z,31.08
2023-04-09T01:55:21.139Z,31.67
2023-04-09T01:57:49.159Z,31.25
2023-04-09T02:00:17.393Z,30.33
2023-04-09T02:02:52.229Z,31.63
2023-04-09T02:05:23.346Z,32.95
2023-04-09T02:07:57.034Z,34.42
2023-04-09T02:10:28.315Z,33.92
2023-04-09T02:12:57.609Z,35.25
2023-04-09T02:15:26.370Z,34.47
2023-04-09T02:17:54.421Z,36.25
2023-04-09T02:20:24.675Z,35.50
2023-04-09T02:22:52.651Z,36.13
2023-04-09T02:25:20.865Z,38.85
2023-04-09T02:27:48.877Z,39.88
2023-04-09T02:30:16.855Z,38.45
2023-04-09T02:32:44.827Z,39.50
2023-04-09T02:35:12.899Z,39.15
2023-04-09T02:37:42.177Z,35.40
2023-04-09T02:40:11.416Z,35.85
2023-04-09T02:42:39.344Z,36.65
2023-04-09T02:45:08.487Z,36.10
2023-04-09T02:47:36.465Z,37.30
2023-04-09T02:50:04.659Z,37.63
2023-04-09T02:52:32.705Z,35.25
2023-04-09T02:55:02.082Z,36.08
2023-04-09T02:57:30.558Z,34.63
2023-04-09T02:59:58.520Z,35.97
2023-04-09T03:02:26.596Z,36.97
2023-04-09T03:04:54.653Z,37.10
2023-04-09T03:07:23.569Z,36.38
2023-04-09T03:09:51.489Z,38.85
2023-04-09T03:12:20.800Z,39.15
2023-04-09T03:14:48.787Z,40.67
2023-04-09T03:17:16.821Z,41.40
2023-04-09T03:19:44.776Z,43.92
2023-04-09T03:22:12.762Z,43.10
2023-04-09T03:24:40.733Z,41.25
2023-04-09T03:27:08.693Z,40.63
2023-04-09T03:29:38.065Z,41.22
2023-04-09T03:32:06.275Z,46.70
2023-04-09T03:34:34.202Z,45.78
2023-04-09T03:37:02.187Z,43.85
2023-04-09T03:39:30.916Z,44.25
2023-04-09T03:41:59.201Z,47.17
2023-04-09T03:44:27.208Z,47.15
2023-04-09T03:46:56.723Z,46.72
2023-04-09T03:49:24.833Z,47.22
2023-04-09T03:51:52.851Z,48.17
2023-04-09T03:54:20.870Z,45.03
2023-04-09T03:56:48.899Z,46.15
2023-04-09T03:59:17.080Z,50.00
2023-04-09T04:01:45.152Z,53.28
2023-04-09T04:04:14.601Z,47.58
2023-04-09T04:06:42.685Z,50.70
2023-04-09T04:09:10.617Z,51.97
2023-04-09T04:11:38.611Z,49.58
2023-04-09T04:14:06.601Z,48.97
2023-04-09T04:16:34.610Z,46.50
2023-04-09T04:19:02.576Z,46.78
2023-04-09T04:21:32.051Z,45.53
2023-04-09T04:24:00.070Z,49.05
2023-04-09T04:26:28.009Z,45.25
2023-04-09T04:28:56.027Z,42.17
2023-04-09T04:31:24.041Z,42.30
2023-04-09T04:33:52.088Z,43.08
2023-04-09T04:36:20.066Z,44.38
2023-04-09T04:38:49.457Z,43.80
2023-04-09T04:41:17.460Z,45.45
2023-04-09T04:43:45.469Z,44.95
2023-04-09T04:46:13.491Z,43.92
2023-04-09T04:48:41.551Z,43.88
2023-04-09T04:51:09.525Z,44.85
2023-04-09T04:53:37.491Z,43.85
2023-04-09T04:56:07.160Z,45.40
2023-04-09T04:58:35.235Z,43.80
2023-04-09T05:01:03.232Z,40.28
2023-04-09T05:03:31.263Z,42.53
2023-04-09T05:05:59.234Z,42.67
2023-04-09T05:08:27.192Z,38.70
2023-04-09T05:10:56.675Z,41.85
2023-04-09T05:13:26.321Z,40.53
2023-04-09T05:15:54.256Z,41.03
2023-04-09T05:18:22.208Z,39.65
2023-04-09T05:20:50.170Z,41.42
2023-04-09T05:23:18.170Z,39.83
2023-04-09T05:25:46.180Z,40.40
2023-04-09T05:28:14.130Z,40.80
2023-04-09T05:30:46.949Z,42.58
2023-04-09T05:33:14.891Z,41.97
2023-04-09T05:35:42.965Z,45.35
2023-04-09T05:38:11.118Z,43.53
2023-04-09T05:40:39.114Z,45.03
2023-04-09T05:43:07.156Z,41.08
2023-04-09T05:45:35.177Z,44.10
2023-04-09T05:48:04.679Z,43.45
2023-04-09T05:50:38.200Z,41.30
2023-04-09T05:55:43.142Z,41.95
2023-04-09T05:58:11.114Z,39.42
2023-04-09T06:00:39.076Z,39.50
2023-04-09T06:03:10.763Z,40.40
2023-04-09T06:05:38.852Z,42.40
2023-04-09T06:08:06.951Z,42.08
2023-04-09T06:10:34.999Z,41.58
2023-04-09T06:13:03.040Z,42.50
2023-04-09T06:15:31.418Z,43.80
2023-04-09T06:17:59.534Z,42.20
2023-04-09T06:20:28.990Z,40.20
2023-04-09T06:22:57.001Z,39.67
2023-04-09T06:25:25.106Z,41.83
2023-04-09T06:27:53.227Z,44.78
2023-04-09T06:30:21.278Z,45.72
2023-04-09T06:32:54.357Z,43.28
2023-04-09T06:35:22.786Z,41.80
2023-04-09T06:37:52.077Z,41.45
2023-04-09T06:40:22.912Z,39.05
2023-04-09T06:42:51.431Z,39.83
2023-04-09T06:45:19.448Z,39.05
2023-04-09T06:47:47.465Z,38.70
2023-04-09T06:50:15.522Z,39.55
2023-04-09T06:52:43.564Z,38.28
2023-04-09T06:55:12.998Z,38.72
2023-04-09T06:57:41.019Z,37.22
2023-04-09T07:00:10.719Z,39.22
2023-04-09T07:02:46.105Z,41.30
2023-04-09T07:05:14.289Z,38.13
2023-04-09T07:07:42.288Z,38.40
2023-04-09T07:10:12.159Z,38.35
2023-04-09T07:12:40.195Z,38.83
2023-04-09T07:15:09.294Z,37.30
2023-04-09T07:17:37.407Z,37.75
2023-04-09T07:20:05.977Z,37.97
2023-04-09T07:22:33.999Z,40.38
2023-04-09T07:25:02.086Z,39.15
2023-04-09T07:27:31.626Z,37.35
2023-04-09T07:30:00.480Z,36.38
2023-04-09T07:32:29.253Z,37.00
2023-04-09T07:34:59.384Z,38.35
2023-04-09T07:37:28.110Z,38.80
2023-04-09T07:39:56.625Z,40.80
2023-04-09T07:42:24.888Z,40.13
2023-04-09T07:44:54.570Z,41.63
2023-04-09T07:47:23.873Z,41.55
2023-04-09T07:49:52.073Z,43.47
2023-04-09T07:52:20.488Z,43.17
2023-04-09T07:54:48.468Z,44.65
2023-04-09T07:57:16.458Z,42.42
2023-04-09T07:59:44.428Z,42.75
2023-04-09T08:02:15.308Z,45.33
2023-04-09T08:04:43.809Z,44.63
2023-04-09T08:07:12.461Z,46.10
2023-04-09T08:09:40.463Z,44.63
2023-04-09T08:12:08.550Z,45.33
2023-04-09T08:14:36.774Z,43.60
2023-04-09T08:17:05.406Z,44.90
2023-04-09T08:19:34.801Z,47.05
2023-04-09T08:22:03.192Z,45.83
2023-04-09T08:24:31.329Z,46.08
2023-04-09T08:26:59.421Z,45.75
2023-04-09T08:29:28.327Z,48.25
2023-04-09T08:31:56.389Z,45.55
2023-04-09T08:34:24.431Z,45.15
2023-04-09T08:36:53.828Z,45.47
2023-04-09T08:39:21.850Z,48.95
2023-04-09T08:41:50.928Z,46.97
2023-04-09T08:44:19.457Z,46.60
2023-04-09T08:46:47.710Z,46.72
2023-04-09T08:49:15.723Z,47.85
2023-04-09T08:51:47.297Z,45.90
2023-04-09T08:54:19.951Z,46.73
2023-04-09T08:56:48.159Z,47.53
2023-04-09T08:59:18.486Z,47.90
2023-04-09T09:01:49.456Z,46.83
2023-04-09T09:04:17.492Z,46.05
2023-04-09T09:06:45.834Z,46.72
2023-04-09T09:09:14.773Z,44.67
2023-04-09T09:11:45.526Z,48.05
2023-04-09T09:14:14.929Z,48.28
2023-04-09T09:16:44.629Z,47.13
2023-04-09T09:19:30.193Z,46.00
2023-04-09T09:21:58.715Z,46.60
2023-04-09T09:24:27.165Z,46.38
2023-04-09T09:26:57.423Z,45.80
2023-04-09T09:29:25.946Z,45.75
2023-04-09T09:31:55.721Z,44.28
2023-04-09T09:34:25.350Z,45.10
2023-04-09T09:36:53.445Z,44.38
2023-04-09T09:39:22.338Z,43.65
2023-04-09T09:42:09.422Z,43.28
2023-04-09T09:44:37.375Z,41.90
2023-04-09T09:47:05.953Z,42.63
2023-04-09T09:49:34.006Z,44.65
2023-04-09T09:52:03.951Z,44.10
2023-04-09T09:54:41.073Z,44.47
2023-04-09T09:57:13.664Z,44.38
2023-04-09T09:59:48.056Z,45.00
2023-04-09T10:02:21.004Z,44.58
2023-04-09T10:04:51.030Z,46.33
2023-04-09T10:07:20.509Z,45.85
2023-04-09T10:09:51.602Z,46.60
2023-04-09T10:12:24.652Z,46.80
2023-04-09T10:14:53.332Z,48.03
2023-04-09T10:17:21.960Z,47.95
2023-04-09T10:19:57.911Z,47.53
2023-04-09T10:22:30.585Z,49.33
2023-04-09T10:24:59.899Z,48.85
2023-04-09T10:27:29.295Z,49.65
2023-04-09T10:29:57.255Z,48.67
2023-04-09T10:32:28.051Z,48.60
2023-04-09T10:34:59.334Z,49.42
2023-04-09T10:37:28.915Z,47.83
2023-04-09T10:39:57.849Z,47.42
2023-04-09T10:42:34.169Z,49.00
2023-04-09T10:45:10.278Z,46.70
2023-04-09T10:47:39.834Z,48.55
2023-04-09T10:50:21.315Z,47.72
2023-04-09T10:52:53.921Z,48.90
2023-04-09T10:55:33.801Z,46.78
2023-04-09T10:58:04.448Z,47.97
2023-04-09T11:00:32.472Z,48.15
2023-04-09T11:03:24.976Z,47.10
2023-04-09T11:06:02.635Z,44.65
2023-04-09T11:08:32.075Z,46.72
2023-04-09T11:11:01.840Z,47.08
2023-04-09T11:13:32.337Z,44.05
2023-04-09T11:16:01.479Z,45.75
2023-04-09T11:18:30.964Z,45.67
2023-04-09T11:20:59.902Z,45.63
2023-04-09T11:23:28.637Z,43.80
2023-04-09T11:25:56.835Z,44.50
2023-04-09T11:28:25.318Z,45.35
2023-04-09T11:30:54.878Z,44.75
2023-04-09T11:33:22.967Z,44.40
2023-04-09T11:35:51.972Z,44.70
2023-04-09T11:38:19.954Z,44.50
2023-04-09T11:40:49.576Z,45.53
2023-04-09T11:43:20.705Z,42.58
2023-04-09T11:45:49.206Z,43.78
2023-04-09T11:48:19.224Z,43.83
2023-04-09T11:50:48.552Z,41.33
2023-04-09T11:53:21.893Z,42.78
2023-04-09T11:55:52.603Z,43.45
2023-04-09T11:58:23.964Z,43.45
2023-04-09T12:00:54.357Z,42.70
2023-04-09T12:03:29.370Z,41.15
2023-04-09T12:05:58.644Z,40.92
2023-04-09T12:08:28.494Z,39.88
2023-04-09T12:10:56.465Z,38.42
2023-04-09T12:13:34.240Z,39.10
2023-04-09T12:16:02.725Z,38.53
2023-04-09T12:18:32.143Z,39.58
2023-04-09T12:21:01.445Z,38.60
2023-04-09T12:23:31.383Z,36.28
2023-04-09T12:26:01.328Z,37.05
2023-04-09T12:28:30.005Z,35.40
2023-04-09T12:30:59.502Z,36.72
2023-04-09T12:33:27.705Z,36.65
2023-04-09T12:35:58.374Z,35.55
2023-04-09T12:38:26.758Z,38.13
2023-04-09T12:40:54.812Z,35.55
2023-04-09T12:43:22.858Z,34.78
2023-04-09T12:45:51.486Z,35.30
2023-04-09T12:48:19.432Z,36.50
2023-04-09T12:50:47.677Z,35.05
2023-04-09T12:53:17.034Z,36.33
2023-04-09T12:55:44.999Z,35.72
2023-04-09T12:58:12.949Z,34.42
2023-04-09T13:00:41.043Z,35.53
2023-04-09T13:03:09.117Z,34.45
2023-04-09T13:05:37.196Z,33.08
2023-04-09T13:08:05.510Z,33.50
2023-04-09T13:10:35.114Z,32.60
2023-04-09T13:13:03.470Z,31.50
2023-04-09T13:15:31.520Z,32.60
2023-04-09T13:17:59.557Z,30.92
2023-04-09T13:20:27.949Z,30.88
2023-04-09T13:22:55.960Z,30.90
2023-04-09T13:25:24.190Z,30.88
2023-04-09T13:27:53.568Z,32.70
2023-04-09T13:30:22.843Z,30.77
2023-04-09T13:32:50.867Z,30.35
2023-04-09T13:35:19.129Z,31.42
2023-04-09T13:37:47.274Z,30.98
2023-04-09T13:40:16.769Z,29.95
2023-04-09T13:42:44.702Z,30.10
2023-04-09T13:45:14.673Z,28.77
2023-04-09T13:47:43.155Z,27.90
2023-04-09T13:50:14.085Z,27.48
2023-04-09T13:52:42.128Z,28.08
2023-04-09T13:55:11.489Z,27.13
2023-04-09T13:57:39.458Z,27.90
2023-04-09T14:00:08.806Z,26.67
2023-04-09T14:02:38.274Z,24.88
2023-04-09T14:05:06.947Z,26.30
2023-04-09T14:07:34.986Z,24.98
2023-04-09T14:10:03.057Z,26.23
2023-04-09T14:12:31.013Z,25.25
2023-04-09T14:15:01.236Z,24.48
2023-04-09T14:17:29.334Z,23.83
2023-04-09T14:19:59.040Z,23.00
2023-04-09T14:22:29.687Z,22.20
2023-04-09T14:24:57.721Z,22.92
2023-04-09T14:27:25.904Z,22.17
2023-04-09T14:29:53.957Z,22.88
2023-04-09T14:32:21.918Z,22.77
2023-04-09T14:34:49.973Z,22.48
2023-04-09T14:37:19.304Z,22.52
2023-04-09T14:39:47.272Z,22.15
2023-04-09T14:42:15.359Z,21.27
2023-04-09T14:44:43.377Z,21.38
2023-04-09T14:47:11.650Z,19.67
2023-04-09T14:49:39.927Z,18.15
2023-04-09T14:52:07.971Z,18.42
2023-04-09T14:54:37.879Z,16.85
2023-04-09T14:57:06.899Z,16.05
2023-04-09T14:59:35.120Z,15.68
2023-04-09T15:02:03.393Z,15.75
2023-04-09T15:04:31.922Z,15.85
2023-04-09T15:07:00.114Z,15.27
2023-04-09T15:09:28.060Z,16.00
2023-04-09T15:11:57.923Z,15.75
2023-04-09T15:14:29.031Z,15.30
2023-04-09T15:16:57.022Z,18.63
2023-04-09T15:19:25.288Z,18.30
2023-04-09T15:21:53.257Z,15.77
2023-04-09T15:24:21.789Z,14.93
2023-04-09T15:26:49.857Z,14.70
2023-04-09T15:29:19.363Z,14.77
2023-04-09T15:31:48.878Z,14.27
2023-04-09T15:34:17.005Z,15.00
2023-04-09T15:36:46.037Z,15.38
2023-04-09T15:39:13.966Z,14.82
2023-04-09T15:41:41.972Z,15.63
2023-04-09T15:44:10.009Z,14.32
2023-04-09T15:46:40.422Z,15.30
2023-04-09T15:49:08.473Z,14.98
2023-04-09T15:51:36.450Z,14.52
2023-04-09T15:54:04.607Z,14.38
2023-04-09T15:56:33.013Z,14.65
2023-04-09T15:59:02.188Z,14.93
2023-04-09T16:01:30.941Z,15.05
2023-04-09T16:04:00.374Z,13.57
2023-04-09T16:06:28.459Z,13.57
2023-04-09T16:08:56.569Z,13.88
2023-04-09T16:11:24.556Z,13.63
2023-04-09T16:13:52.556Z,13.43
2023-04-09T16:16:20.961Z,14.02
2023-04-09T16:18:49.038Z,13.50
2023-04-09T16:21:18.633Z,13.82
2023-04-09T16:23:46.665Z,13.30
2023-04-09T16:26:14.664Z,13.15
2023-04-09T16:28:42.600Z,13.70
2023-04-09T16:31:10.663Z,13.55
2023-04-09T16:33:38.691Z,12.80
2023-04-09T16:36:07.364Z,13.02
2023-04-09T16:38:36.797Z,13.43
2023-04-09T16:41:04.804Z,12.55
2023-04-09T16:43:32.788Z,13.02
2023-04-09T16:46:00.831Z,14.10
2023-04-09T16:48:28.842Z,13.68
2023-04-09T16:50:56.793Z,13.85
2023-04-09T16:53:24.770Z,13.75
2023-04-09T16:55:54.118Z,13.77
2023-04-09T16:58:22.133Z,13.55
2023-04-09T17:00:51.975Z,13.65
2023-04-09T17:03:20.373Z,13.60
2023-04-09T17:05:49.513Z,14.18
2023-04-09T17:08:17.912Z,13.18
2023-04-09T17:10:46.167Z,13.77
2023-04-09T17:13:15.806Z,13.68
2023-04-09T17:15:43.755Z,13.65
2023-04-09T17:18:11.890Z,13.80
2023-04-09T17:20:39.845Z,13.95
2023-04-09T17:23:08.685Z,13.98
2023-04-09T17:25:36.980Z,13.20
2023-04-09T17:28:06.001Z,13.40
2023-04-09T17:30:36.194Z,12.95
2023-04-09T17:33:04.298Z,13.02
2023-04-09T17:35:32.715Z,13.88
2023-04-09T17:38:01.223Z,14.43
2023-04-09T17:40:29.365Z,14.07
2023-04-09T17:42:57.329Z,13.60
2023-04-09T17:45:25.404Z,13.88
2023-04-09T17:47:55.452Z,14.90
2023-04-09T17:50:23.518Z,13.68
2023-04-09T17:52:51.506Z,14.10
2023-04-09T17:55:19.544Z,14.80
2023-04-09T17:57:47.636Z,13.98
2023-04-09T18:00:16.984Z,13.93
2023-04-09T18:02:46.015Z,14.63
2023-04-09T18:05:15.751Z,14.88
2023-04-09T18:07:43.937Z,14.77
2023-04-09T18:10:12.233Z,13.95
2023-04-09T18:12:40.283Z,14.82
2023-04-09T18:15:09.186Z,14.15
2023-04-09T18:17:37.228Z,13.90
2023-04-09T18:20:06.524Z,14.23
2023-04-09T18:22:36.491Z,14.15
2023-04-09T18:25:04.612Z,14.27
2023-04-09T18:27:32.590Z,14.88
2023-04-09T18:30:00.632Z,13.27
2023-04-09T18:32:28.754Z,14.20
2023-04-09T18:34:57.968Z,15.55
2023-04-09T18:37:26.579Z,14.98
2023-04-09T18:39:56.560Z,14.18
2023-04-09T18:42:24.534Z,13.50
2023-04-09T18:44:52.553Z,14.07
2023-04-09T18:47:20.788Z,14.65
2023-04-09T18:49:48.750Z,14.57
2023-04-09T18:52:16.687Z,13.95
2023-04-09T18:54:44.698Z,14.32
2023-04-09T18:57:14.027Z,14.88
2023-04-09T18:59:42.192Z,14.07
2023-04-09T19:02:10.252Z,14.30
2023-04-09T19:04:40.111Z,14.23
2023-04-09T19:07:08.766Z,13.93
2023-04-09T19:09:37.381Z,14.23
2023-04-09T19:12:05.794Z,14.73
2023-04-09T19:14:36.416Z,14.05
2023-04-09T19:17:04.422Z,14.45
2023-04-09T19:19:32.569Z,14.73
2023-04-09T19:22:00.649Z,13.75
2023-04-09T19:24:28.613Z,13.63
2023-04-09T19:26:56.636Z,13.70
2023-04-09T19:29:24.594Z,13.73
2023-04-09T19:31:54.066Z,13.90
2023-04-09T19:34:22.159Z,14.23
2023-04-09T19:36:50.156Z,14.23
2023-04-09T19:39:18.823Z,13.98
2023-04-09T19:41:46.792Z,13.52
2023-04-09T19:44:14.758Z,14.20
2023-04-09T19:46:42.810Z,14.43
2023-04-09T19:49:12.543Z,14.07
2023-04-09T19:51:40.468Z,14.50
2023-04-09T19:54:10.653Z,15.02
2023-04-09T19:56:39.068Z,14.25
2023-04-09T19:59:07.332Z,13.70
2023-04-09T20:01:35.405Z,14.93
2023-04-09T20:04:03.506Z,13.65
2023-04-09T20:06:33.461Z,14.80
2023-04-09T20:09:01.863Z,14.07
2023-04-09T20:11:29.800Z,12.48
2023-04-09T20:13:58.525Z,13.90
2023-04-09T20:16:26.618Z,14.02
2023-04-09T20:18:54.801Z,13.63
2023-04-09T20:21:23.154Z,14.25
2023-04-09T20:23:52.472Z,14.43
2023-04-09T20:26:20.480Z,15.05
2023-04-09T20:28:48.716Z,13.55
2023-04-09T20:31:16.972Z,13.07
2023-04-09T20:33:44.963Z,14.02
2023-04-09T20:36:16.741Z,14.48
2023-04-09T20:38:45.039Z,14.57
2023-04-09T20:41:14.394Z,13.90
2023-04-09T20:43:42.388Z,13.57
2023-04-09T20:46:10.544Z,13.63
2023-04-09T20:48:38.682Z,14.05
2023-04-09T20:51:11.025Z,14.30
2023-04-09T20:56:09.032Z,14.18
2023-04-09T20:58:38.933Z,13.48
2023-04-09T21:01:09.499Z,13.63
2023-04-09T21:03:38.285Z,13.60
2023-04-09T21:06:07.283Z,13.95
2023-04-09T21:08:36.334Z,13.57
2023-04-09T21:11:04.378Z,14.10
2023-04-09T21:13:40.345Z,15.13
2023-04-09T21:16:20.411Z,14.52
2023-04-09T21:18:48.906Z,13.73
2023-04-09T21:21:16.890Z,14.02
2023-04-09T21:23:44.793Z,14.48
2023-04-09T21:26:13.248Z,14.48
2023-04-09T21:28:41.224Z,13.60
2023-04-09T21:31:10.931Z,13.90
2023-04-09T21:33:43.333Z,14.23
2023-04-09T21:36:11.331Z,13.85
2023-04-09T21:38:39.551Z,12.95
2023-04-09T21:41:08.368Z,12.85
2023-04-09T21:43:38.260Z,14.02
2023-04-09T21:46:06.597Z,12.60
2023-04-09T21:48:34.636Z,13.70
2023-04-09T21:51:04.028Z,13.30
2023-04-09T21:53:32.599Z,14.20
2023-04-09T21:56:01.828Z,13.52
2023-04-09T21:58:32.512Z,14.35
2023-04-09T22:01:00.729Z,12.88
2023-04-09T22:03:28.884Z,13.25
2023-04-09T22:05:57.097Z,13.30
2023-04-09T22:08:26.459Z,13.55
2023-04-09T22:10:54.416Z,13.55
2023-04-09T22:13:22.537Z,13.32
2023-04-09T22:15:50.667Z,12.88
2023-04-09T22:18:18.656Z,12.88
2023-04-09T22:20:47.155Z,12.85
2023-04-09T22:23:15.193Z,12.70
2023-04-09T22:25:44.672Z,12.52
2023-04-09T22:28:12.689Z,13.00
2023-04-09T22:30:41.008Z,12.35
2023-04-09T22:33:09.044Z,13.18
2023-04-09T22:35:37.058Z,13.07
2023-04-09T22:38:05.399Z,12.38
2023-04-09T22:40:33.332Z,11.90
2023-04-09T22:43:02.690Z,13.00
2023-04-09T22:45:32.201Z,12.15
2023-04-09T22:48:00.373Z,12.18
2023-04-09T22:50:28.902Z,11.63
2023-04-09T22:52:57.008Z,12.07
2023-04-09T22:55:24.994Z,11.43
2023-04-09T22:57:53.012Z,11.23
2023-04-09T23:00:22.564Z,11.27
2023-04-09T23:02:50.949Z,12.20
2023-04-09T23:05:19.178Z,11.48
2023-04-09T23:07:47.130Z,11.80
2023-04-09T23:10:17.350Z,12.07
2023-04-09T23:12:45.337Z,11.88
2023-04-09T23:15:13.419Z,12.55
2023-04-09T23:17:42.960Z,11.63
2023-04-09T23:20:14.737Z,12.00
2023-04-09T23:22:42.970Z,11.85
2023-04-09T23:25:11.292Z,11.10
2023-04-09T23:27:39.316Z,12.05
2023-04-09T23:30:08.856Z,10.98
2023-04-09T23:32:37.006Z,11.20
2023-04-09T23:35:07.292Z,10.80
2023-04-09T23:37:35.393Z,10.68
2023-04-09T23:40:03.817Z,10.95
2023-04-09T23:42:33.836Z,10.95
2023-04-09T23:45:04.076Z,10.88
2023-04-09T23:47:33.462Z,10.45
2023-04-09T23:50:04.700Z,10.50
2023-04-09T23:52:35.491Z,10.65
2023-04-09T23:55:03.643Z,10.40
2023-04-09T23:57:31.712Z,10.85
2023-04-09T23:59:59.685Z,10.63
